sensor_id;sensor_type;location;lat;lon;timestamp;P1;durP1;ratioP1;P2;durP2;ratioP2
64950;SDS011;51482;47.014;7.652;2022-09-20T00:00:12;3.87;;;2.07;;
64950;SDS011;51482;47.014;7.652;2022-09-20T00:02:38;3.63;;;2.07;;
64950;SDS011;51482;47.014;7.652;2022-09-20T00:05:04;3.80;;;1.80;;
64950;SDS011;51482;47.014;7.652;2022-09-20T00:07:32;3.33;;;1.93;;
64950;SDS011;51482;47.014;7.652;2022-09-20T00:09:58;1.90;;;1.70;;
64950;SDS011;51482;47.014;7.652;2022-09-20T00:12:23;5.40;;;2.13;;
64950;SDS011;51482;47.014;7.652;2022-09-20T00:14:50;2.73;;;1.97;;
64950;SDS011;51482;47.014;7.652;2022-09-20T00:17:15;5.33;;;2.00;;
64950;SDS011;51482;47.014;7.652;2022-09-20T00:19:41;3.17;;;2.23;;
64950;SDS011;51482;47.014;7.652;2022-09-20T00:22:06;3.13;;;2.53;;
64950;SDS011;51482;47.014;7.652;2022-09-20T00:24:32;2.90;;;2.20;;
64950;SDS011;51482;47.014;7.652;2022-09-20T00:27:00;4.23;;;2.30;;
64950;SDS011;51482;47.014;7.652;2022-09-20T00:29:26;4.90;;;2.50;;
64950;SDS011;51482;47.014;7.652;2022-09-20T00:31:52;3.87;;;2.63;;
64950;SDS011;51482;47.014;7.652;2022-09-20T00:34:17;5.53;;;2.50;;
64950;SDS011;51482;47.014;7.652;2022-09-20T00:37:01;3.57;;;2.03;;
64950;SDS011;51482;47.014;7.652;2022-09-20T00:39:27;2.33;;;1.90;;
64950;SDS011;51482;47.014;7.652;2022-09-20T00:41:53;3.00;;;1.80;;
64950;SDS011;51482;47.014;7.652;2022-09-20T00:47:03;4.73;;;2.30;;
64950;SDS011;51482;47.014;7.652;2022-09-20T00:49:29;3.33;;;2.00;;
64950;SDS011;51482;47.014;7.652;2022-09-20T00:51:56;3.50;;;2.20;;
64950;SDS011;51482;47.014;7.652;2022-09-20T00:54:26;5.87;;;3.00;;
64950;SDS011;51482;47.014;7.652;2022-09-20T00:56:53;1.97;;;1.83;;
64950;SDS011;51482;47.014;7.652;2022-09-20T00:59:40;5.53;;;2.00;;
64950;SDS011;51482;47.014;7.652;2022-09-20T01:04:46;1.97;;;1.43;;
64950;SDS011;51482;47.014;7.652;2022-09-20T01:07:16;2.03;;;1.83;;
64950;SDS011;51482;47.014;7.652;2022-09-20T01:09:46;4.50;;;1.83;;
64950;SDS011;51482;47.014;7.652;2022-09-20T01:12:14;2.63;;;1.70;;
64950;SDS011;51482;47.014;7.652;2022-09-20T01:14:43;4.53;;;1.87;;
64950;SDS011;51482;47.014;7.652;2022-09-20T01:17:11;3.10;;;1.70;;
64950;SDS011;51482;47.014;7.652;2022-09-20T01:19:50;3.67;;;2.00;;
64950;SDS011;51482;47.014;7.652;2022-09-20T01:28:11;4.03;;;1.70;;
64950;SDS011;51482;47.014;7.652;2022-09-20T01:30:39;2.23;;;1.43;;
64950;SDS011;51482;47.014;7.652;2022-09-20T01:33:11;2.13;;;1.63;;
64950;SDS011;51482;47.014;7.652;2022-09-20T01:36:11;2.93;;;1.63;;
64950;SDS011;51482;47.014;7.652;2022-09-20T01:38:52;1.80;;;1.70;;
64950;SDS011;51482;47.014;7.652;2022-09-20T01:41:26;2.37;;;1.60;;
64950;SDS011;51482;47.014;7.652;2022-09-20T01:44:11;3.73;;;1.80;;
64950;SDS011;51482;47.014;7.652;2022-09-20T01:47:20;1.33;;;1.23;;
64950;SDS011;51482;47.014;7.652;2022-09-20T01:49:51;1.67;;;1.53;;
64950;SDS011;51482;47.014;7.652;2022-09-20T01:55:33;1.97;;;1.43;;
64950;SDS011;51482;47.014;7.652;2022-09-20T02:11:12;2.03;;;1.70;;
64950;SDS011;51482;47.014;7.652;2022-09-20T02:13:50;2.97;;;1.73;;
64950;SDS011;51482;47.014;7.652;2022-09-20T02:27:26;2.30;;;2.10;;
64950;SDS011;51482;47.014;7.652;2022-09-20T02:33:10;2.73;;;2.23;;
64950;SDS011;51482;47.014;7.652;2022-09-20T02:47:21;2.80;;;1.97;;
64950;SDS011;51482;47.014;7.652;2022-09-20T02:50:17;2.30;;;2.10;;
64950;SDS011;51482;47.014;7.652;2022-09-20T02:58:26;4.97;;;2.00;;
64950;SDS011;51482;47.014;7.652;2022-09-20T03:01:15;3.00;;;2.13;;
64950;SDS011;51482;47.014;7.652;2022-09-20T03:14:49;4.10;;;1.80;;
64950;SDS011;51482;47.014;7.652;2022-09-20T03:25:33;2.00;;;1.63;;
64950;SDS011;51482;47.014;7.652;2022-09-20T03:34:52;3.27;;;1.80;;
64950;SDS011;51482;47.014;7.652;2022-09-20T03:40:53;2.60;;;1.73;;
64950;SDS011;51482;47.014;7.652;2022-09-20T03:46:20;2.93;;;1.87;;
64950;SDS011;51482;47.014;7.652;2022-09-20T03:57:19;1.80;;;1.60;;
64950;SDS011;51482;47.014;7.652;2022-09-20T04:00:07;2.13;;;1.73;;
64950;SDS011;51482;47.014;7.652;2022-09-20T04:02:52;3.63;;;2.20;;
64950;SDS011;51482;47.014;7.652;2022-09-20T04:05:36;2.37;;;2.17;;
64950;SDS011;51482;47.014;7.652;2022-09-20T04:08:16;2.30;;;2.07;;
64950;SDS011;51482;47.014;7.652;2022-09-20T04:14:16;2.90;;;1.60;;
64950;SDS011;51482;47.014;7.652;2022-09-20T04:17:04;2.17;;;1.50;;
64950;SDS011;51482;47.014;7.652;2022-09-20T04:19:49;2.77;;;2.07;;
64950;SDS011;51482;47.014;7.652;2022-09-20T04:22:27;5.10;;;2.20;;
64950;SDS011;51482;47.014;7.652;2022-09-20T04:27:48;2.13;;;1.93;;
64950;SDS011;51482;47.014;7.652;2022-09-20T04:30:22;3.17;;;2.33;;
64950;SDS011;51482;47.014;7.652;2022-09-20T04:33:05;2.60;;;2.03;;
64950;SDS011;51482;47.014;7.652;2022-09-20T04:38:44;4.53;;;2.30;;
64950;SDS011;51482;47.014;7.652;2022-09-20T04:41:25;2.43;;;2.13;;
64950;SDS011;51482;47.014;7.652;2022-09-20T04:55:34;2.50;;;2.10;;
64950;SDS011;51482;47.014;7.652;2022-09-20T05:10:28;4.23;;;1.80;;
64950;SDS011;51482;47.014;7.652;2022-09-20T05:12:58;3.27;;;2.23;;
64950;SDS011;51482;47.014;7.652;2022-09-20T05:29:24;2.87;;;1.90;;
64950;SDS011;51482;47.014;7.652;2022-09-20T05:32:22;3.97;;;2.17;;
64950;SDS011;51482;47.014;7.652;2022-09-20T05:34:59;2.07;;;1.77;;
64950;SDS011;51482;47.014;7.652;2022-09-20T05:43:17;2.13;;;1.93;;
64950;SDS011;51482;47.014;7.652;2022-09-20T06:04:24;2.40;;;1.80;;
64950;SDS011;51482;47.014;7.652;2022-09-20T06:10:17;2.80;;;1.73;;
64950;SDS011;51482;47.014;7.652;2022-09-20T06:18:25;5.43;;;1.70;;
64950;SDS011;51482;47.014;7.652;2022-09-20T06:23:37;4.50;;;2.87;;
64950;SDS011;51482;47.014;7.652;2022-09-20T06:26:06;2.73;;;1.90;;
64950;SDS011;51482;47.014;7.652;2022-09-20T06:28:37;2.17;;;1.87;;
64950;SDS011;51482;47.014;7.652;2022-09-20T06:31:10;5.50;;;2.63;;
64950;SDS011;51482;47.014;7.652;2022-09-20T06:33:39;6.33;;;2.60;;
64950;SDS011;51482;47.014;7.652;2022-09-20T06:36:10;5.33;;;2.67;;
64950;SDS011;51482;47.014;7.652;2022-09-20T06:41:52;5.50;;;2.47;;
64950;SDS011;51482;47.014;7.652;2022-09-20T06:44:18;4.50;;;2.87;;
64950;SDS011;51482;47.014;7.652;2022-09-20T06:46:43;3.17;;;2.67;;
64950;SDS011;51482;47.014;7.652;2022-09-20T06:49:09;7.10;;;3.07;;
64950;SDS011;51482;47.014;7.652;2022-09-20T06:51:35;10.67;;;2.80;;
64950;SDS011;51482;47.014;7.652;2022-09-20T06:54:03;9.13;;;2.67;;
64950;SDS011;51482;47.014;7.652;2022-09-20T06:56:31;5.23;;;2.73;;
64950;SDS011;51482;47.014;7.652;2022-09-20T06:59:00;5.97;;;3.30;;
64950;SDS011;51482;47.014;7.652;2022-09-20T07:01:34;4.13;;;2.60;;
64950;SDS011;51482;47.014;7.652;2022-09-20T07:04:00;3.83;;;2.77;;
64950;SDS011;51482;47.014;7.652;2022-09-20T07:06:26;6.70;;;2.80;;
64950;SDS011;51482;47.014;7.652;2022-09-20T07:08:52;3.30;;;2.50;;
64950;SDS011;51482;47.014;7.652;2022-09-20T07:11:18;4.13;;;2.20;;
64950;SDS011;51482;47.014;7.652;2022-09-20T07:13:48;2.47;;;2.27;;
64950;SDS011;51482;47.014;7.652;2022-09-20T07:16:16;6.50;;;2.43;;
64950;SDS011;51482;47.014;7.652;2022-09-20T07:18:41;2.43;;;2.20;;
64950;SDS011;51482;47.014;7.652;2022-09-20T07:21:10;3.77;;;2.10;;
64950;SDS011;51482;47.014;7.652;2022-09-20T07:23:38;4.17;;;2.10;;
64950;SDS011;51482;47.014;7.652;2022-09-20T07:26:03;2.87;;;2.10;;
64950;SDS011;51482;47.014;7.652;2022-09-20T07:28:31;3.70;;;2.00;;
64950;SDS011;51482;47.014;7.652;2022-09-20T07:30:57;4.40;;;2.20;;
64950;SDS011;51482;47.014;7.652;2022-09-20T07:33:23;2.90;;;2.20;;
64950;SDS011;51482;47.014;7.652;2022-09-20T07:35:53;2.40;;;2.20;;
64950;SDS011;51482;47.014;7.652;2022-09-20T07:38:20;2.73;;;2.30;;
64950;SDS011;51482;47.014;7.652;2022-09-20T07:40:59;2.60;;;2.40;;
64950;SDS011;51482;47.014;7.652;2022-09-20T07:43:26;2.80;;;2.13;;
64950;SDS011;51482;47.014;7.652;2022-09-20T07:45:53;3.53;;;2.10;;
64950;SDS011;51482;47.014;7.652;2022-09-20T07:48:23;2.20;;;2.00;;
64950;SDS011;51482;47.014;7.652;2022-09-20T07:50:51;4.57;;;1.80;;
64950;SDS011;51482;47.014;7.652;2022-09-20T07:53:19;1.73;;;1.63;;
64950;SDS011;51482;47.014;7.652;2022-09-20T07:55:55;4.53;;;2.10;;
64950;SDS011;51482;47.014;7.652;2022-09-20T07:58:24;4.87;;;2.03;;
64950;SDS011;51482;47.014;7.652;2022-09-20T08:00:56;5.50;;;2.37;;
64950;SDS011;51482;47.014;7.652;2022-09-20T08:03:23;7.43;;;3.13;;
64950;SDS011;51482;47.014;7.652;2022-09-20T08:05:50;9.10;;;3.10;;
64950;SDS011;51482;47.014;7.652;2022-09-20T08:08:16;10.97;;;2.87;;
64950;SDS011;51482;47.014;7.652;2022-09-20T08:10:45;8.33;;;2.87;;
64950;SDS011;51482;47.014;7.652;2022-09-20T08:13:12;6.00;;;2.80;;
64950;SDS011;51482;47.014;7.652;2022-09-20T08:15:38;4.70;;;2.30;;
64950;SDS011;51482;47.014;7.652;2022-09-20T08:18:05;8.33;;;3.27;;
64950;SDS011;51482;47.014;7.652;2022-09-20T08:20:36;3.10;;;1.73;;
64950;SDS011;51482;47.014;7.652;2022-09-20T08:23:03;3.37;;;2.13;;
64950;SDS011;51482;47.014;7.652;2022-09-20T08:25:29;4.47;;;2.67;;
64950;SDS011;51482;47.014;7.652;2022-09-20T08:27:55;3.10;;;1.90;;
64950;SDS011;51482;47.014;7.652;2022-09-20T08:30:21;5.43;;;2.20;;
64950;SDS011;51482;47.014;7.652;2022-09-20T08:32:47;3.17;;;1.97;;
64950;SDS011;51482;47.014;7.652;2022-09-20T08:35:13;5.53;;;2.10;;
64950;SDS011;51482;47.014;7.652;2022-09-20T08:37:40;3.83;;;2.03;;
64950;SDS011;51482;47.014;7.652;2022-09-20T08:40:08;3.37;;;2.10;;
64950;SDS011;51482;47.014;7.652;2022-09-20T08:42:42;3.80;;;2.13;;
64950;SDS011;51482;47.014;7.652;2022-09-20T08:45:16;3.08;;;2.17;;
64950;SDS011;51482;47.014;7.652;2022-09-20T08:47:47;2.72;;;1.60;;
64950;SDS011;51482;47.014;7.652;2022-09-20T08:50:15;4.35;;;1.98;;
64950;SDS011;51482;47.014;7.652;2022-09-20T08:52:43;4.50;;;1.85;;
64950;SDS011;51482;47.014;7.652;2022-09-20T08:55:17;3.45;;;1.80;;
64950;SDS011;51482;47.014;7.652;2022-09-20T08:57:46;2.80;;;1.80;;
64950;SDS011;51482;47.014;7.652;2022-09-20T09:00:23;2.60;;;1.67;;
64950;SDS011;51482;47.014;7.652;2022-09-20T09:02:53;2.13;;;1.50;;
64950;SDS011;51482;47.014;7.652;2022-09-20T09:07:58;3.25;;;1.85;;
64950;SDS011;51482;47.014;7.652;2022-09-20T09:10:27;1.90;;;1.80;;
64950;SDS011;51482;47.014;7.652;2022-09-20T09:12:58;3.75;;;1.70;;
64950;SDS011;51482;47.014;7.652;2022-09-20T09:15:27;3.03;;;1.65;;
64950;SDS011;51482;47.014;7.652;2022-09-20T09:17:58;4.20;;;1.45;;
64950;SDS011;51482;47.014;7.652;2022-09-20T09:20:24;5.07;;;1.70;;
64950;SDS011;51482;47.014;7.652;2022-09-20T09:23:00;1.50;;;1.30;;
64950;SDS011;51482;47.014;7.652;2022-09-20T09:25:34;2.80;;;1.48;;
64950;SDS011;51482;47.014;7.652;2022-09-20T09:30:40;5.95;;;2.92;;
64950;SDS011;51482;47.014;7.652;2022-09-20T09:36:07;3.28;;;1.60;;
64950;SDS011;51482;47.014;7.652;2022-09-20T09:38:47;2.63;;;1.30;;
64950;SDS011;51482;47.014;7.652;2022-09-20T09:43:45;4.90;;;1.70;;
64950;SDS011;51482;47.014;7.652;2022-09-20T09:46:25;2.72;;;1.63;;
64950;SDS011;51482;47.014;7.652;2022-09-20T09:49:31;4.78;;;1.77;;
64950;SDS011;51482;47.014;7.652;2022-09-20T09:54:33;4.47;;;1.70;;
64950;SDS011;51482;47.014;7.652;2022-09-20T10:08:07;3.95;;;1.50;;
64950;SDS011;51482;47.014;7.652;2022-09-20T10:10:55;4.25;;;1.80;;
64950;SDS011;51482;47.014;7.652;2022-09-20T10:24:07;2.72;;;1.50;;
64950;SDS011;51482;47.014;7.652;2022-09-20T10:32:53;2.50;;;1.60;;
64950;SDS011;51482;47.014;7.652;2022-09-20T10:35:06;2.13;;;1.40;;
64950;SDS011;51482;47.014;7.652;2022-09-20T10:38:00;3.40;;;1.77;;
64950;SDS011;51482;47.014;7.652;2022-09-20T10:40:39;2.33;;;1.80;;
64950;SDS011;51482;47.014;7.652;2022-09-20T10:52:08;2.95;;;1.70;;
64950;SDS011;51482;47.014;7.652;2022-09-20T10:54:46;3.35;;;1.50;;
64950;SDS011;51482;47.014;7.652;2022-09-20T10:57:34;3.92;;;2.03;;
64950;SDS011;51482;47.014;7.652;2022-09-20T11:00:23;2.15;;;1.48;;
64950;SDS011;51482;47.014;7.652;2022-09-20T11:03:21;2.63;;;1.30;;
64950;SDS011;51482;47.014;7.652;2022-09-20T11:08:39;2.08;;;1.45;;
64950;SDS011;51482;47.014;7.652;2022-09-20T11:11:09;2.88;;;1.52;;
64950;SDS011;51482;47.014;7.652;2022-09-20T11:13:44;3.55;;;1.55;;
64950;SDS011;51482;47.014;7.652;2022-09-20T11:17:04;4.50;;;1.70;;
64950;SDS011;51482;47.014;7.652;2022-09-20T11:19:18;4.13;;;1.60;;
64950;SDS011;51482;47.014;7.652;2022-09-20T11:22:12;3.55;;;1.65;;
64950;SDS011;51482;47.014;7.652;2022-09-20T11:25:10;3.97;;;2.13;;
64950;SDS011;51482;47.014;7.652;2022-09-20T11:27:56;4.20;;;1.60;;
64950;SDS011;51482;47.014;7.652;2022-09-20T11:30:33;2.55;;;2.03;;
64950;SDS011;51482;47.014;7.652;2022-09-20T11:33:24;1.92;;;1.70;;
64950;SDS011;51482;47.014;7.652;2022-09-20T11:36:00;2.63;;;1.60;;
64950;SDS011;51482;47.014;7.652;2022-09-20T11:43:44;3.33;;;1.88;;
64950;SDS011;51482;47.014;7.652;2022-09-20T11:46:34;2.78;;;1.90;;
64950;SDS011;51482;47.014;7.652;2022-09-20T11:49:13;1.65;;;1.48;;
64950;SDS011;51482;47.014;7.652;2022-09-20T11:51:58;5.40;;;1.80;;
64950;SDS011;51482;47.014;7.652;2022-09-20T11:57:30;2.50;;;1.77;;
64950;SDS011;51482;47.014;7.652;2022-09-20T11:59:57;5.28;;;1.92;;
64950;SDS011;51482;47.014;7.652;2022-09-20T12:07:52;5.10;;;2.10;;
64950;SDS011;51482;47.014;7.652;2022-09-20T12:10:22;4.78;;;2.15;;
64950;SDS011;51482;47.014;7.652;2022-09-20T12:12:54;2.92;;;1.73;;
64950;SDS011;51482;47.014;7.652;2022-09-20T12:15:29;5.85;;;1.95;;
64950;SDS011;51482;47.014;7.652;2022-09-20T12:26:01;2.45;;;1.77;;
64950;SDS011;51482;47.014;7.652;2022-09-20T12:34:00;3.60;;;1.75;;
64950;SDS011;51482;47.014;7.652;2022-09-20T12:36:36;4.40;;;2.42;;
64950;SDS011;51482;47.014;7.652;2022-09-20T12:49:40;2.83;;;2.10;;
64950;SDS011;51482;47.014;7.652;2022-09-20T13:03:10;6.03;;;1.70;;
64950;SDS011;51482;47.014;7.652;2022-09-20T13:05:37;3.20;;;1.60;;
64950;SDS011;51482;47.014;7.652;2022-09-20T13:08:14;4.18;;;1.70;;
64950;SDS011;51482;47.014;7.652;2022-09-20T13:11:28;3.72;;;2.03;;
64950;SDS011;51482;47.014;7.652;2022-09-20T13:16:21;2.05;;;1.60;;
64950;SDS011;51482;47.014;7.652;2022-09-20T13:18:58;1.55;;;1.45;;
64950;SDS011;51482;47.014;7.652;2022-09-20T13:21:35;3.53;;;1.63;;
64950;SDS011;51482;47.014;7.652;2022-09-20T13:24:02;5.32;;;2.05;;
64950;SDS011;51482;47.014;7.652;2022-09-20T13:26:32;3.53;;;1.40;;
64950;SDS011;51482;47.014;7.652;2022-09-20T13:29:03;3.33;;;1.70;;
64950;SDS011;51482;47.014;7.652;2022-09-20T13:31:34;5.28;;;1.70;;
64950;SDS011;51482;47.014;7.652;2022-09-20T13:36:45;3.22;;;1.60;;
64950;SDS011;51482;47.014;7.652;2022-09-20T13:39:21;1.92;;;1.20;;
64950;SDS011;51482;47.014;7.652;2022-09-20T13:42:09;1.60;;;1.40;;
64950;SDS011;51482;47.014;7.652;2022-09-20T13:44:40;2.75;;;1.45;;
64950;SDS011;51482;47.014;7.652;2022-09-20T13:50:06;2.80;;;1.70;;
64950;SDS011;51482;47.014;7.652;2022-09-20T13:52:52;2.70;;;1.40;;
64950;SDS011;51482;47.014;7.652;2022-09-20T13:55:36;5.68;;;1.70;;
64950;SDS011;51482;47.014;7.652;2022-09-20T13:58:07;1.65;;;1.45;;
64950;SDS011;51482;47.014;7.652;2022-09-20T14:00:49;2.08;;;1.50;;
64950;SDS011;51482;47.014;7.652;2022-09-20T14:03:19;4.07;;;1.23;;
64950;SDS011;51482;47.014;7.652;2022-09-20T14:05:48;2.83;;;1.50;;
64950;SDS011;51482;47.014;7.652;2022-09-20T14:08:49;1.63;;;1.52;;
64950;SDS011;51482;47.014;7.652;2022-09-20T14:13:41;1.33;;;1.20;;
64950;SDS011;51482;47.014;7.652;2022-09-20T14:16:09;1.40;;;1.30;;
64950;SDS011;51482;47.014;7.652;2022-09-20T14:18:35;2.60;;;1.45;;
64950;SDS011;51482;47.014;7.652;2022-09-20T14:21:04;3.47;;;2.13;;
64950;SDS011;51482;47.014;7.652;2022-09-20T14:23:32;4.68;;;1.80;;
64950;SDS011;51482;47.014;7.652;2022-09-20T14:28:40;1.92;;;1.20;;
64950;SDS011;51482;47.014;7.652;2022-09-20T14:31:40;3.63;;;1.17;;
64950;SDS011;51482;47.014;7.652;2022-09-20T14:33:59;2.78;;;1.40;;
64950;SDS011;51482;47.014;7.652;2022-09-20T14:36:28;4.90;;;1.52;;
64950;SDS011;51482;47.014;7.652;2022-09-20T14:38:58;1.48;;;1.00;;
64950;SDS011;51482;47.014;7.652;2022-09-20T14:41:36;1.80;;;1.13;;
64950;SDS011;51482;47.014;7.652;2022-09-20T14:44:05;1.10;;;1.00;;
64950;SDS011;51482;47.014;7.652;2022-09-20T14:46:43;2.53;;;1.38;;
64950;SDS011;51482;47.014;7.652;2022-09-20T14:51:51;2.72;;;1.30;;
64950;SDS011;51482;47.014;7.652;2022-09-20T14:54:35;4.22;;;1.50;;
64950;SDS011;51482;47.014;7.652;2022-09-20T14:57:00;1.88;;;1.45;;
64950;SDS011;51482;47.014;7.652;2022-09-20T14:59:27;1.67;;;1.23;;
64950;SDS011;51482;47.014;7.652;2022-09-20T15:02:02;2.28;;;1.23;;
64950;SDS011;51482;47.014;7.652;2022-09-20T15:04:35;2.67;;;1.30;;
64950;SDS011;51482;47.014;7.652;2022-09-20T15:07:06;3.45;;;1.55;;
64950;SDS011;51482;47.014;7.652;2022-09-20T15:09:34;2.33;;;1.33;;
64950;SDS011;51482;47.014;7.652;2022-09-20T15:12:04;1.70;;;1.00;;
64950;SDS011;51482;47.014;7.652;2022-09-20T15:14:31;5.03;;;1.60;;
64950;SDS011;51482;47.014;7.652;2022-09-20T15:16:57;2.75;;;1.48;;
64950;SDS011;51482;47.014;7.652;2022-09-20T15:19:24;3.88;;;1.75;;
64950;SDS011;51482;47.014;7.652;2022-09-20T15:21:50;2.83;;;1.67;;
64950;SDS011;51482;47.014;7.652;2022-09-20T15:24:16;4.43;;;1.40;;
64950;SDS011;51482;47.014;7.652;2022-09-20T15:26:42;2.70;;;1.23;;
64950;SDS011;51482;47.014;7.652;2022-09-20T15:29:16;1.80;;;1.40;;
64950;SDS011;51482;47.014;7.652;2022-09-20T15:31:42;4.35;;;1.50;;
64950;SDS011;51482;47.014;7.652;2022-09-20T15:34:10;4.38;;;1.45;;
64950;SDS011;51482;47.014;7.652;2022-09-20T15:36:37;3.42;;;1.58;;
64950;SDS011;51482;47.014;7.652;2022-09-20T15:39:03;2.38;;;1.30;;
64950;SDS011;51482;47.014;7.652;2022-09-20T15:41:29;3.30;;;1.45;;
64950;SDS011;51482;47.014;7.652;2022-09-20T15:43:55;3.88;;;1.52;;
64950;SDS011;51482;47.014;7.652;2022-09-20T15:46:21;2.28;;;1.05;;
64950;SDS011;51482;47.014;7.652;2022-09-20T15:48:51;3.53;;;1.20;;
64950;SDS011;51482;47.014;7.652;2022-09-20T15:51:17;1.80;;;1.00;;
64950;SDS011;51482;47.014;7.652;2022-09-20T15:53:43;1.77;;;1.30;;
64950;SDS011;51482;47.014;7.652;2022-09-20T15:56:24;2.58;;;1.48;;
64950;SDS011;51482;47.014;7.652;2022-09-20T15:58:52;1.83;;;1.20;;
64950;SDS011;51482;47.014;7.652;2022-09-20T16:01:29;2.85;;;1.50;;
64950;SDS011;51482;47.014;7.652;2022-09-20T16:04:10;3.53;;;1.48;;
64950;SDS011;51482;47.014;7.652;2022-09-20T16:06:38;3.15;;;1.20;;
64950;SDS011;51482;47.014;7.652;2022-09-20T16:09:05;2.42;;;1.35;;
64950;SDS011;51482;47.014;7.652;2022-09-20T16:11:32;4.45;;;1.60;;
64950;SDS011;51482;47.014;7.652;2022-09-20T16:13:58;2.60;;;1.42;;
64950;SDS011;51482;47.014;7.652;2022-09-20T16:16:25;1.83;;;1.15;;
64950;SDS011;51482;47.014;7.652;2022-09-20T16:18:53;3.17;;;1.25;;
64950;SDS011;51482;47.014;7.652;2022-09-20T16:21:38;2.65;;;1.30;;
64950;SDS011;51482;47.014;7.652;2022-09-20T16:24:06;3.70;;;1.45;;
64950;SDS011;51482;47.014;7.652;2022-09-20T16:26:32;5.40;;;1.55;;
64950;SDS011;51482;47.014;7.652;2022-09-20T16:28:59;4.38;;;1.50;;
64950;SDS011;51482;47.014;7.652;2022-09-20T16:34:01;1.27;;;1.17;;
64950;SDS011;51482;47.014;7.652;2022-09-20T16:36:28;2.90;;;1.30;;
64950;SDS011;51482;47.014;7.652;2022-09-20T16:38:54;1.85;;;1.27;;
64950;SDS011;51482;47.014;7.652;2022-09-20T16:41:21;1.45;;;1.00;;
64950;SDS011;51482;47.014;7.652;2022-09-20T16:43:49;5.80;;;1.42;;
64950;SDS011;51482;47.014;7.652;2022-09-20T16:46:15;4.05;;;1.20;;
64950;SDS011;51482;47.014;7.652;2022-09-20T16:48:46;2.67;;;1.00;;
64950;SDS011;51482;47.014;7.652;2022-09-20T16:51:13;2.95;;;1.30;;
64950;SDS011;51482;47.014;7.652;2022-09-20T16:53:40;1.77;;;1.17;;
64950;SDS011;51482;47.014;7.652;2022-09-20T16:56:05;5.03;;;1.40;;
64950;SDS011;51482;47.014;7.652;2022-09-20T16:58:31;2.05;;;0.95;;
64950;SDS011;51482;47.014;7.652;2022-09-20T17:01:02;1.92;;;1.20;;
64950;SDS011;51482;47.014;7.652;2022-09-20T17:03:29;1.70;;;1.10;;
64950;SDS011;51482;47.014;7.652;2022-09-20T17:06:04;2.20;;;1.10;;
64950;SDS011;51482;47.014;7.652;2022-09-20T17:08:31;4.15;;;1.52;;
64950;SDS011;51482;47.014;7.652;2022-09-20T17:11:04;2.92;;;0.90;;
64950;SDS011;51482;47.014;7.652;2022-09-20T17:13:32;2.63;;;1.20;;
64950;SDS011;51482;47.014;7.652;2022-09-20T17:16:00;4.07;;;1.45;;
64950;SDS011;51482;47.014;7.652;2022-09-20T17:18:27;1.48;;;1.10;;
64950;SDS011;51482;47.014;7.652;2022-09-20T17:20:52;2.50;;;1.20;;
64950;SDS011;51482;47.014;7.652;2022-09-20T17:23:18;2.35;;;1.55;;
64950;SDS011;51482;47.014;7.652;2022-09-20T17:25:44;2.03;;;1.40;;
64950;SDS011;51482;47.014;7.652;2022-09-20T17:28:12;1.40;;;1.30;;
64950;SDS011;51482;47.014;7.652;2022-09-20T17:30:38;4.78;;;1.30;;
64950;SDS011;51482;47.014;7.652;2022-09-20T17:33:05;2.72;;;1.40;;
64950;SDS011;51482;47.014;7.652;2022-09-20T17:35:31;1.02;;;0.70;;
64950;SDS011;51482;47.014;7.652;2022-09-20T17:37:56;4.00;;;1.20;;
64950;SDS011;51482;47.014;7.652;2022-09-20T17:40:22;2.38;;;1.00;;
64950;SDS011;51482;47.014;7.652;2022-09-20T17:42:47;3.28;;;2.10;;
64950;SDS011;51482;47.014;7.652;2022-09-20T17:45:13;2.25;;;1.40;;
64950;SDS011;51482;47.014;7.652;2022-09-20T17:47:40;2.10;;;1.20;;
64950;SDS011;51482;47.014;7.652;2022-09-20T17:50:06;6.55;;;2.75;;
64950;SDS011;51482;47.014;7.652;2022-09-20T17:52:38;5.75;;;3.80;;
64950;SDS011;51482;47.014;7.652;2022-09-20T17:55:05;4.38;;;2.00;;
64950;SDS011;51482;47.014;7.652;2022-09-20T17:57:31;4.30;;;1.50;;
64950;SDS011;51482;47.014;7.652;2022-09-20T17:59:57;10.82;;;4.63;;
64950;SDS011;51482;47.014;7.652;2022-09-20T18:02:23;10.35;;;7.13;;
64950;SDS011;51482;47.014;7.652;2022-09-20T18:04:48;5.00;;;2.17;;
64950;SDS011;51482;47.014;7.652;2022-09-20T18:07:14;2.42;;;1.42;;
64950;SDS011;51482;47.014;7.652;2022-09-20T18:09:39;4.78;;;1.77;;
64950;SDS011;51482;47.014;7.652;2022-09-20T18:12:05;1.88;;;1.60;;
64950;SDS011;51482;47.014;7.652;2022-09-20T18:14:31;5.00;;;1.40;;
64950;SDS011;51482;47.014;7.652;2022-09-20T18:16:57;2.53;;;1.40;;
64950;SDS011;51482;47.014;7.652;2022-09-20T18:19:24;2.92;;;1.70;;
64950;SDS011;51482;47.014;7.652;2022-09-20T18:21:57;3.78;;;1.80;;
64950;SDS011;51482;47.014;7.652;2022-09-20T18:24:23;2.67;;;1.70;;
64950;SDS011;51482;47.014;7.652;2022-09-20T18:26:49;1.70;;;1.60;;
64950;SDS011;51482;47.014;7.652;2022-09-20T18:29:15;2.08;;;1.60;;
64950;SDS011;51482;47.014;7.652;2022-09-20T18:31:47;2.30;;;2.10;;
64950;SDS011;51482;47.014;7.652;2022-09-20T18:34:21;2.58;;;1.90;;
64950;SDS011;51482;47.014;7.652;2022-09-20T18:36:50;2.53;;;1.73;;
64950;SDS011;51482;47.014;7.652;2022-09-20T18:39:23;2.83;;;2.03;;
64950;SDS011;51482;47.014;7.652;2022-09-20T18:41:51;3.30;;;1.98;;
64950;SDS011;51482;47.014;7.652;2022-09-20T18:44:17;3.88;;;2.17;;
64950;SDS011;51482;47.014;7.652;2022-09-20T18:46:44;6.40;;;2.30;;
64950;SDS011;51482;47.014;7.652;2022-09-20T18:49:10;2.10;;;1.90;;
64950;SDS011;51482;47.014;7.652;2022-09-20T18:51:38;2.35;;;1.80;;
64950;SDS011;51482;47.014;7.652;2022-09-20T18:54:04;4.07;;;2.00;;
64950;SDS011;51482;47.014;7.652;2022-09-20T18:56:33;2.10;;;1.83;;
64950;SDS011;51482;47.014;7.652;2022-09-20T18:59:01;3.20;;;1.75;;
64950;SDS011;51482;47.014;7.652;2022-09-20T19:12:40;3.53;;;2.38;;
64950;SDS011;51482;47.014;7.652;2022-09-20T19:15:46;1.77;;;1.58;;
64950;SDS011;51482;47.014;7.652;2022-09-20T19:24:39;4.78;;;1.90;;
64950;SDS011;51482;47.014;7.652;2022-09-20T19:27:11;1.92;;;1.63;;
64950;SDS011;51482;47.014;7.652;2022-09-20T19:29:37;1.90;;;1.70;;
64950;SDS011;51482;47.014;7.652;2022-09-20T19:32:03;3.10;;;1.85;;
64950;SDS011;51482;47.014;7.652;2022-09-20T19:34:30;3.08;;;1.92;;
64950;SDS011;51482;47.014;7.652;2022-09-20T19:45:51;3.53;;;2.22;;
64950;SDS011;51482;47.014;7.652;2022-09-20T19:48:45;4.45;;;2.20;;
64950;SDS011;51482;47.014;7.652;2022-09-20T19:51:18;3.20;;;1.80;;
64950;SDS011;51482;47.014;7.652;2022-09-20T19:53:46;2.58;;;2.30;;
64950;SDS011;51482;47.014;7.652;2022-09-20T19:56:16;3.72;;;3.05;;
64950;SDS011;51482;47.014;7.652;2022-09-20T19:58:49;2.92;;;2.28;;
64950;SDS011;51482;47.014;7.652;2022-09-20T20:01:18;4.10;;;2.17;;
64950;SDS011;51482;47.014;7.652;2022-09-20T20:03:46;5.50;;;2.00;;
64950;SDS011;51482;47.014;7.652;2022-09-20T20:06:17;2.25;;;1.92;;
64950;SDS011;51482;47.014;7.652;2022-09-20T20:09:12;3.25;;;2.30;;
64950;SDS011;51482;47.014;7.652;2022-09-20T20:11:55;5.38;;;2.38;;
64950;SDS011;51482;47.014;7.652;2022-09-20T20:17:26;4.95;;;2.03;;
64950;SDS011;51482;47.014;7.652;2022-09-20T20:20:08;3.07;;;2.43;;
64950;SDS011;51482;47.014;7.652;2022-09-20T20:23:01;2.63;;;2.10;;
64950;SDS011;51482;47.014;7.652;2022-09-20T20:28:16;3.75;;;2.40;;
64950;SDS011;51482;47.014;7.652;2022-09-20T20:30:42;3.13;;;2.13;;
64950;SDS011;51482;47.014;7.652;2022-09-20T20:33:12;3.90;;;2.33;;
64950;SDS011;51482;47.014;7.652;2022-09-20T20:35:39;4.97;;;2.47;;
64950;SDS011;51482;47.014;7.652;2022-09-20T20:38:05;3.13;;;2.07;;
64950;SDS011;51482;47.014;7.652;2022-09-20T20:40:34;6.23;;;2.33;;
64950;SDS011;51482;47.014;7.652;2022-09-20T20:43:00;2.50;;;2.07;;
64950;SDS011;51482;47.014;7.652;2022-09-20T20:45:26;2.37;;;2.10;;
64950;SDS011;51482;47.014;7.652;2022-09-20T20:47:56;5.83;;;2.20;;
64950;SDS011;51482;47.014;7.652;2022-09-20T20:50:22;4.37;;;2.43;;
64950;SDS011;51482;47.014;7.652;2022-09-20T20:52:53;4.07;;;2.40;;